sensor_id;sensor_type;location;lat;lon;timestamp;pressure;altitude;pressure_sealevel;temperature;humidity
48862;BME280;34681;49.188;-0.374;2024-01-06T00:01:59;100719.38;;;9.79;71.17
48862;BME280;34681;49.188;-0.374;2024-01-06T00:04:25;100716.34;;;9.63;71.49
48862;BME280;34681;49.188;-0.374;2024-01-06T00:06:50;100724.38;;;9.74;71.34
48862;BME280;34681;49.188;-0.374;2024-01-06T00:09:15;100726.56;;;9.71;71.50
48862;BME280;34681;49.188;-0.374;2024-01-06T00:11:40;100729.28;;;9.80;71.16
48862;BME280;34681;49.188;-0.374;2024-01-06T00:14:06;100726.25;;;9.83;71.11
48862;BME280;34681;49.188;-0.374;2024-01-06T00:16:31;100730.88;;;9.83;71.24
48862;BME280;34681;49.188;-0.374;2024-01-06T00:18:56;100725.56;;;9.91;71.00
48862;BME280;34681;49.188;-0.374;2024-01-06T00:21:22;100723.69;;;9.72;71.36
48862;BME280;34681;49.188;-0.374;2024-01-06T00:23:47;100736.47;;;9.81;71.27
48862;BME280;34681;49.188;-0.374;2024-01-06T00:26:13;100739.53;;;9.98;71.01
48862;BME280;34681;49.188;-0.374;2024-01-06T00:28:41;100746.56;;;10.00;70.85
48862;BME280;34681;49.188;-0.374;2024-01-06T00:31:06;100735.22;;;9.85;71.00
48862;BME280;34681;49.188;-0.374;2024-01-06T00:33:32;100737.78;;;9.87;71.23
48862;BME280;34681;49.188;-0.374;2024-01-06T00:35:57;100747.88;;;10.06;70.65
48862;BME280;34681;49.188;-0.374;2024-01-06T00:38:22;100751.19;;;10.09;70.84
48862;BME280;34681;49.188;-0.374;2024-01-06T00:40:48;100763.72;;;10.02;70.78
48862;BME280;34681;49.188;-0.374;2024-01-06T00:43:13;100764.47;;;9.54;71.71
48862;BME280;34681;49.188;-0.374;2024-01-06T00:45:38;100765.06;;;9.68;71.78
48862;BME280;34681;49.188;-0.374;2024-01-06T00:48:04;100779.63;;;9.78;71.38
48862;BME280;34681;49.188;-0.374;2024-01-06T00:50:30;100783.75;;;9.53;71.80
48862;BME280;34681;49.188;-0.374;2024-01-06T00:52:55;100782.25;;;9.39;72.30
48862;BME280;34681;49.188;-0.374;2024-01-06T00:55:21;100790.41;;;9.70;71.89
48862;BME280;34681;49.188;-0.374;2024-01-06T00:57:47;100786.78;;;9.19;73.19
48862;BME280;34681;49.188;-0.374;2024-01-06T01:00:13;100783.19;;;9.19;73.77
48862;BME280;34681;49.188;-0.374;2024-01-06T01:02:38;100781.88;;;9.53;73.19
48862;BME280;34681;49.188;-0.374;2024-01-06T01:05:04;100784.94;;;9.70;72.93
48862;BME280;34681;49.188;-0.374;2024-01-06T01:07:30;100779.91;;;9.84;72.56
48862;BME280;34681;49.188;-0.374;2024-01-06T01:09:56;100790.28;;;10.00;72.04
48862;BME280;34681;49.188;-0.374;2024-01-06T01:12:22;100793.19;;;10.08;71.61
48862;BME280;34681;49.188;-0.374;2024-01-06T01:14:49;100792.47;;;10.16;71.79
48862;BME280;34681;49.188;-0.374;2024-01-06T01:17:16;100787.72;;;10.08;71.71
48862;BME280;34681;49.188;-0.374;2024-01-06T01:19:41;100785.72;;;10.20;71.38
48862;BME280;34681;49.188;-0.374;2024-01-06T01:22:06;100797.72;;;10.29;71.54
48862;BME280;34681;49.188;-0.374;2024-01-06T01:24:32;100786.31;;;10.33;70.95
48862;BME280;34681;49.188;-0.374;2024-01-06T01:26:57;100802.63;;;10.35;71.27
48862;BME280;34681;49.188;-0.374;2024-01-06T01:29:23;100801.75;;;10.34;71.35
48862;BME280;34681;49.188;-0.374;2024-01-06T01:31:48;100801.59;;;10.36;71.15
48862;BME280;34681;49.188;-0.374;2024-01-06T01:34:13;100807.63;;;10.39;71.28
48862;BME280;34681;49.188;-0.374;2024-01-06T01:36:39;100803.88;;;10.40;71.29
48862;BME280;34681;49.188;-0.374;2024-01-06T01:39:05;100816.00;;;10.38;71.35
48862;BME280;34681;49.188;-0.374;2024-01-06T01:41:30;100814.41;;;10.35;71.33
48862;BME280;34681;49.188;-0.374;2024-01-06T01:43:55;100821.91;;;10.43;71.16
48862;BME280;34681;49.188;-0.374;2024-01-06T01:46:30;100813.22;;;10.19;71.53
48862;BME280;34681;49.188;-0.374;2024-01-06T01:48:56;100817.38;;;10.03;71.87
48862;BME280;34681;49.188;-0.374;2024-01-06T01:51:22;100816.25;;;9.66;72.04
48862;BME280;34681;49.188;-0.374;2024-01-06T01:53:49;100813.28;;;9.38;73.16
48862;BME280;34681;49.188;-0.374;2024-01-06T01:56:15;100804.56;;;9.14;72.90
48862;BME280;34681;49.188;-0.374;2024-01-06T01:58:40;100808.97;;;9.36;73.25
48862;BME280;34681;49.188;-0.374;2024-01-06T02:01:07;100815.59;;;9.83;72.01
48862;BME280;34681;49.188;-0.374;2024-01-06T02:03:33;100803.56;;;10.14;71.49
48862;BME280;34681;49.188;-0.374;2024-01-06T02:05:58;100808.50;;;10.30;70.90
48862;BME280;34681;49.188;-0.374;2024-01-06T02:08:24;100820.16;;;10.32;70.89
48862;BME280;34681;49.188;-0.374;2024-01-06T02:10:49;100818.28;;;10.33;70.60
48862;BME280;34681;49.188;-0.374;2024-01-06T02:13:15;100816.84;;;10.29;70.88
48862;BME280;34681;49.188;-0.374;2024-01-06T02:15:40;100813.94;;;10.21;71.10
48862;BME280;34681;49.188;-0.374;2024-01-06T02:18:06;100813.53;;;10.25;70.72
48862;BME280;34681;49.188;-0.374;2024-01-06T02:20:32;100817.88;;;10.28;70.89
48862;BME280;34681;49.188;-0.374;2024-01-06T02:22:57;100823.63;;;10.34;70.57
48862;BME280;34681;49.188;-0.374;2024-01-06T02:25:25;100835.28;;;10.36;70.55
48862;BME280;34681;49.188;-0.374;2024-01-06T02:27:50;100833.53;;;10.26;70.75
48862;BME280;34681;49.188;-0.374;2024-01-06T02:30:16;100855.69;;;10.23;70.84
48862;BME280;34681;49.188;-0.374;2024-01-06T02:32:41;100866.13;;;9.98;71.63
48862;BME280;34681;49.188;-0.374;2024-01-06T02:35:07;100873.94;;;9.72;72.28
48862;BME280;34681;49.188;-0.374;2024-01-06T02:37:32;100877.84;;;9.70;72.81
48862;BME280;34681;49.188;-0.374;2024-01-06T02:39:57;100878.16;;;9.76;72.60
48862;BME280;34681;49.188;-0.374;2024-01-06T02:42:23;100879.34;;;9.93;72.28
48862;BME280;34681;49.188;-0.374;2024-01-06T02:44:49;100874.63;;;10.05;71.75
48862;BME280;34681;49.188;-0.374;2024-01-06T02:47:14;100874.50;;;10.16;71.71
48862;BME280;34681;49.188;-0.374;2024-01-06T02:49:40;100881.53;;;10.09;71.83
48862;BME280;34681;49.188;-0.374;2024-01-06T02:52:05;100881.56;;;10.19;71.71
48862;BME280;34681;49.188;-0.374;2024-01-06T02:54:30;100888.91;;;10.18;71.78
48862;BME280;34681;49.188;-0.374;2024-01-06T02:56:56;100882.28;;;10.21;71.56
48862;BME280;34681;49.188;-0.374;2024-01-06T02:59:21;100880.41;;;10.21;71.57
48862;BME280;34681;49.188;-0.374;2024-01-06T03:01:47;100879.44;;;10.22;71.49
48862;BME280;34681;49.188;-0.374;2024-01-06T03:04:12;100880.63;;;10.29;71.55
48862;BME280;34681;49.188;-0.374;2024-01-06T03:06:37;100887.97;;;10.29;71.33
48862;BME280;34681;49.188;-0.374;2024-01-06T03:09:03;100890.41;;;10.32;71.51
48862;BME280;34681;49.188;-0.374;2024-01-06T03:11:28;100888.53;;;10.32;71.50
48862;BME280;34681;49.188;-0.374;2024-01-06T03:13:53;100892.72;;;10.36;71.12
48862;BME280;34681;49.188;-0.374;2024-01-06T03:16:19;100893.84;;;10.34;71.22
48862;BME280;34681;49.188;-0.374;2024-01-06T03:18:44;100883.91;;;10.33;71.29
48862;BME280;34681;49.188;-0.374;2024-01-06T03:21:21;100887.81;;;10.30;71.32
48862;BME280;34681;49.188;-0.374;2024-01-06T03:23:48;100883.66;;;10.36;71.21
48862;BME280;34681;49.188;-0.374;2024-01-06T03:26:13;100872.97;;;10.33;71.23
48862;BME280;34681;49.188;-0.374;2024-01-06T03:28:38;100883.50;;;10.37;71.33
48862;BME280;34681;49.188;-0.374;2024-01-06T03:31:04;100879.47;;;10.32;71.33
48862;BME280;34681;49.188;-0.374;2024-01-06T03:33:29;100881.94;;;10.35;71.44
48862;BME280;34681;49.188;-0.374;2024-01-06T03:35:54;100873.41;;;10.28;71.48
48862;BME280;34681;49.188;-0.374;2024-01-06T03:38:20;100875.00;;;10.31;71.33
48862;BME280;34681;49.188;-0.374;2024-01-06T03:40:45;100880.63;;;10.29;71.31
48862;BME280;34681;49.188;-0.374;2024-01-06T03:43:10;100881.78;;;10.27;71.24
48862;BME280;34681;49.188;-0.374;2024-01-06T03:45:36;100879.81;;;10.18;71.65
48862;BME280;34681;49.188;-0.374;2024-01-06T03:48:01;100885.28;;;10.18;71.58
48862;BME280;34681;49.188;-0.374;2024-01-06T03:50:26;100883.75;;;10.25;71.16
48862;BME280;34681;49.188;-0.374;2024-01-06T03:52:52;100899.53;;;10.11;71.70
48862;BME280;34681;49.188;-0.374;2024-01-06T03:55:17;100898.59;;;10.22;71.03
48862;BME280;34681;49.188;-0.374;2024-01-06T03:57:42;100896.72;;;10.23;71.34
48862;BME280;34681;49.188;-0.374;2024-01-06T04:00:08;100904.00;;;10.12;71.87
48862;BME280;34681;49.188;-0.374;2024-01-06T04:02:34;100898.09;;;10.17;71.72
48862;BME280;34681;49.188;-0.374;2024-01-06T04:04:59;100909.66;;;9.80;71.81
48862;BME280;34681;49.188;-0.374;2024-01-06T04:07:24;100911.00;;;9.96;71.77
48862;BME280;34681;49.188;-0.374;2024-01-06T04:09:50;100913.59;;;9.97;72.27
48862;BME280;34681;49.188;-0.374;2024-01-06T04:12:15;100911.34;;;10.12;71.70
48862;BME280;34681;49.188;-0.374;2024-01-06T04:14:40;100919.56;;;10.22;71.57
48862;BME280;34681;49.188;-0.374;2024-01-06T04:17:05;100919.00;;;10.18;71.46
48862;BME280;34681;49.188;-0.374;2024-01-06T04:19:31;100925.31;;;10.19;72.08
48862;BME280;34681;49.188;-0.374;2024-01-06T04:21:56;100928.75;;;10.11;71.70
48862;BME280;34681;49.188;-0.374;2024-01-06T04:24:22;100941.69;;;10.09;71.95
48862;BME280;34681;49.188;-0.374;2024-01-06T04:26:47;100939.88;;;10.19;71.92
48862;BME280;34681;49.188;-0.374;2024-01-06T04:29:13;100932.88;;;10.26;71.62
48862;BME280;34681;49.188;-0.374;2024-01-06T04:31:39;100942.06;;;10.25;71.52
48862;BME280;34681;49.188;-0.374;2024-01-06T04:34:04;100934.13;;;10.22;71.73
48862;BME280;34681;49.188;-0.374;2024-01-06T04:36:30;100940.84;;;9.47;72.76
48862;BME280;34681;49.188;-0.374;2024-01-06T04:38:55;100937.19;;;9.68;72.47
48862;BME280;34681;49.188;-0.374;2024-01-06T04:41:20;100931.34;;;9.51;72.30
48862;BME280;34681;49.188;-0.374;2024-01-06T04:43:46;100944.66;;;9.35;72.84
48862;BME280;34681;49.188;-0.374;2024-01-06T04:46:12;100943.38;;;9.60;72.70
48862;BME280;34681;49.188;-0.374;2024-01-06T04:48:40;100950.53;;;9.92;71.96
48862;BME280;34681;49.188;-0.374;2024-01-06T04:51:05;100942.28;;;10.12;71.68
48862;BME280;34681;49.188;-0.374;2024-01-06T04:53:34;100936.97;;;10.11;71.79
48862;BME280;34681;49.188;-0.374;2024-01-06T04:55:59;100938.88;;;9.90;71.70
48862;BME280;34681;49.188;-0.374;2024-01-06T04:58:25;100946.31;;;9.78;72.21
48862;BME280;34681;49.188;-0.374;2024-01-06T05:00:50;100947.63;;;9.32;72.22
48862;BME280;34681;49.188;-0.374;2024-01-06T05:03:17;100949.63;;;9.09;73.58
48862;BME280;34681;49.188;-0.374;2024-01-06T05:05:43;100952.44;;;9.19;73.57
48862;BME280;34681;49.188;-0.374;2024-01-06T05:08:08;100947.81;;;9.61;72.44
48862;BME280;34681;49.188;-0.374;2024-01-06T05:10:33;100958.25;;;9.77;71.74
48862;BME280;34681;49.188;-0.374;2024-01-06T05:12:59;100956.25;;;9.27;72.04
48862;BME280;34681;49.188;-0.374;2024-01-06T05:15:24;100954.63;;;9.04;72.85
48862;BME280;34681;49.188;-0.374;2024-01-06T05:17:49;100958.91;;;9.39;72.76
48862;BME280;34681;49.188;-0.374;2024-01-06T05:20:15;100960.81;;;9.69;71.79
48862;BME280;34681;49.188;-0.374;2024-01-06T05:22:40;100964.16;;;9.82;71.26
48862;BME280;34681;49.188;-0.374;2024-01-06T05:25:06;100965.81;;;9.94;71.23
48862;BME280;34681;49.188;-0.374;2024-01-06T05:27:31;100980.25;;;10.06;70.97
48862;BME280;34681;49.188;-0.374;2024-01-06T05:29:56;100973.03;;;10.05;71.18
48862;BME280;34681;49.188;-0.374;2024-01-06T05:32:22;100972.91;;;10.06;70.91
48862;BME280;34681;49.188;-0.374;2024-01-06T05:34:48;100976.66;;;10.05;71.33
48862;BME280;34681;49.188;-0.374;2024-01-06T05:37:14;100977.22;;;10.09;71.09
48862;BME280;34681;49.188;-0.374;2024-01-06T05:39:39;100980.94;;;9.98;71.42
48862;BME280;34681;49.188;-0.374;2024-01-06T05:42:06;100988.91;;;10.11;71.06
48862;BME280;34681;49.188;-0.374;2024-01-06T05:44:31;101001.66;;;10.01;71.21
48862;BME280;34681;49.188;-0.374;2024-01-06T05:47:00;101000.06;;;9.98;71.67
48862;BME280;34681;49.188;-0.374;2024-01-06T05:49:25;101010.28;;;9.75;71.78
48862;BME280;34681;49.188;-0.374;2024-01-06T05:51:50;101002.13;;;9.01;72.91
48862;BME280;34681;49.188;-0.374;2024-01-06T05:54:16;100999.91;;;9.07;72.66
48862;BME280;34681;49.188;-0.374;2024-01-06T05:56:41;100993.72;;;9.25;72.42
48862;BME280;34681;49.188;-0.374;2024-01-06T05:59:06;100988.84;;;9.50;71.89
48862;BME280;34681;49.188;-0.374;2024-01-06T06:01:32;100988.25;;;9.25;71.17
48862;BME280;34681;49.188;-0.374;2024-01-06T06:03:57;100996.88;;;9.10;72.12
48862;BME280;34681;49.188;-0.374;2024-01-06T06:06:23;101004.78;;;8.92;72.13
48862;BME280;34681;49.188;-0.374;2024-01-06T06:08:48;100998.03;;;9.07;71.66
48862;BME280;34681;49.188;-0.374;2024-01-06T06:11:14;101005.19;;;8.44;73.32
48862;BME280;34681;49.188;-0.374;2024-01-06T06:13:42;101011.97;;;8.50;73.38
48862;BME280;34681;49.188;-0.374;2024-01-06T06:16:11;101017.31;;;8.40;73.70
48862;BME280;34681;49.188;-0.374;2024-01-06T06:18:40;101011.19;;;8.70;73.52
48862;BME280;34681;49.188;-0.374;2024-01-06T06:21:08;101005.66;;;8.92;72.80
48862;BME280;34681;49.188;-0.374;2024-01-06T06:23:34;101019.13;;;8.73;72.99
48862;BME280;34681;49.188;-0.374;2024-01-06T06:26:04;101021.56;;;8.87;73.00
48862;BME280;34681;49.188;-0.374;2024-01-06T06:28:29;101027.63;;;8.91;72.81
48862;BME280;34681;49.188;-0.374;2024-01-06T06:30:55;101044.59;;;9.26;72.01
48862;BME280;34681;49.188;-0.374;2024-01-06T06:33:20;101045.91;;;9.64;71.71
48862;BME280;34681;49.188;-0.374;2024-01-06T06:35:45;101043.41;;;9.82;71.21
48862;BME280;34681;49.188;-0.374;2024-01-06T06:38:11;101054.72;;;9.98;71.04
48862;BME280;34681;49.188;-0.374;2024-01-06T06:40:36;101047.16;;;10.02;70.81
48862;BME280;34681;49.188;-0.374;2024-01-06T06:43:02;101048.81;;;9.72;71.20
48862;BME280;34681;49.188;-0.374;2024-01-06T06:45:27;101049.56;;;9.53;72.18
48862;BME280;34681;49.188;-0.374;2024-01-06T06:47:52;101061.53;;;9.41;72.45
48862;BME280;34681;49.188;-0.374;2024-01-06T06:50:18;101061.75;;;9.49;72.34
48862;BME280;34681;49.188;-0.374;2024-01-06T06:52:44;101066.75;;;9.44;72.24
48862;BME280;34681;49.188;-0.374;2024-01-06T06:55:09;101068.13;;;9.60;71.98
48862;BME280;34681;49.188;-0.374;2024-01-06T06:57:35;101078.75;;;9.74;71.71
48862;BME280;34681;49.188;-0.374;2024-01-06T07:00:00;101083.59;;;9.49;71.77
48862;BME280;34681;49.188;-0.374;2024-01-06T07:02:26;101085.06;;;9.74;71.83
48862;BME280;34681;49.188;-0.374;2024-01-06T07:04:51;101082.59;;;9.92;71.37
48862;BME280;34681;49.188;-0.374;2024-01-06T07:07:16;101095.16;;;9.95;71.37
48862;BME280;34681;49.188;-0.374;2024-01-06T07:09:42;101099.00;;;9.92;71.00
48862;BME280;34681;49.188;-0.374;2024-01-06T07:12:07;101090.53;;;9.74;71.64
48862;BME280;34681;49.188;-0.374;2024-01-06T07:14:33;101113.47;;;9.30;71.97
48862;BME280;34681;49.188;-0.374;2024-01-06T07:16:58;101104.94;;;8.80;73.23
48862;BME280;34681;49.188;-0.374;2024-01-06T07:19:24;101108.41;;;8.71;73.53
48862;BME280;34681;49.188;-0.374;2024-01-06T07:21:50;101102.72;;;8.40;74.79
48862;BME280;34681;49.188;-0.374;2024-01-06T07:24:15;101116.84;;;8.57;74.67
48862;BME280;34681;49.188;-0.374;2024-01-06T07:26:40;101122.66;;;8.52;74.98
48862;BME280;34681;49.188;-0.374;2024-01-06T07:29:06;101133.97;;;8.70;75.04
48862;BME280;34681;49.188;-0.374;2024-01-06T07:31:33;101142.00;;;8.60;75.02
48862;BME280;34681;49.188;-0.374;2024-01-06T07:33:59;101148.97;;;8.87;74.86
48862;BME280;34681;49.188;-0.374;2024-01-06T07:36:24;101153.72;;;9.28;73.92
48862;BME280;34681;49.188;-0.374;2024-01-06T07:38:49;101145.75;;;9.68;72.92
48862;BME280;34681;49.188;-0.374;2024-01-06T07:41:15;101152.94;;;9.69;72.47
48862;BME280;34681;49.188;-0.374;2024-01-06T07:43:40;101146.34;;;9.93;72.24
48862;BME280;34681;49.188;-0.374;2024-01-06T07:46:05;101143.41;;;10.05;71.82
48862;BME280;34681;49.188;-0.374;2024-01-06T07:48:32;101155.56;;;10.12;72.04
48862;BME280;34681;49.188;-0.374;2024-01-06T07:50:57;101156.56;;;10.11;71.98
48862;BME280;34681;49.188;-0.374;2024-01-06T07:53:22;101160.03;;;10.13;71.85
48862;BME280;34681;49.188;-0.374;2024-01-06T07:55:49;101163.84;;;10.22;71.82
48862;BME280;34681;49.188;-0.374;2024-01-06T07:58:14;101168.16;;;10.25;71.76
48862;BME280;34681;49.188;-0.374;2024-01-06T08:00:39;101168.94;;;10.27;71.87
48862;BME280;34681;49.188;-0.374;2024-01-06T08:03:05;101169.78;;;10.27;72.16
48862;BME280;34681;49.188;-0.374;2024-01-06T08:05:31;101177.84;;;10.29;72.14
48862;BME280;34681;49.188;-0.374;2024-01-06T08:07:56;101181.84;;;10.25;72.21
48862;BME280;34681;49.188;-0.374;2024-01-06T08:10:22;101186.63;;;10.11;72.59
48862;BME280;34681;49.188;-0.374;2024-01-06T08:12:47;101183.09;;;10.21;72.49
48862;BME280;34681;49.188;-0.374;2024-01-06T08:15:13;101191.19;;;10.22;72.74
48862;BME280;34681;49.188;-0.374;2024-01-06T08:17:39;101188.94;;;10.27;72.49
48862;BME280;34681;49.188;-0.374;2024-01-06T08:20:07;101198.06;;;10.37;72.47
48862;BME280;34681;49.188;-0.374;2024-01-06T08:22:32;101206.75;;;10.43;71.77
48862;BME280;34681;49.188;-0.374;2024-01-06T08:24:57;101210.41;;;10.32;72.37
48862;BME280;34681;49.188;-0.374;2024-01-06T08:27:23;101210.88;;;10.37;72.73
48862;BME280;34681;49.188;-0.374;2024-01-06T08:29:49;101218.41;;;10.45;72.11
48862;BME280;34681;49.188;-0.374;2024-01-06T08:32:15;101232.97;;;10.45;72.59
48862;BME280;34681;49.188;-0.374;2024-01-06T08:34:41;101240.75;;;10.50;72.57
48862;BME280;34681;49.188;-0.374;2024-01-06T08:37:07;101248.38;;;10.46;72.58
48862;BME280;34681;49.188;-0.374;2024-01-06T08:39:32;101256.16;;;10.51;72.52
48862;BME280;34681;49.188;-0.374;2024-01-06T08:41:57;101261.44;;;10.63;71.75
48862;BME280;34681;49.188;-0.374;2024-01-06T08:44:23;101260.31;;;10.45;72.13
48862;BME280;34681;49.188;-0.374;2024-01-06T08:46:49;101261.84;;;10.38;72.57
48862;BME280;34681;49.188;-0.374;2024-01-06T08:49:15;101260.19;;;10.47;72.16
48862;BME280;34681;49.188;-0.374;2024-01-06T08:51:40;101257.38;;;10.37;72.31
48862;BME280;34681;49.188;-0.374;2024-01-06T08:54:06;101245.84;;;10.54;72.01
48862;BME280;34681;49.188;-0.374;2024-01-06T08:56:33;101244.50;;;9.96;71.97
48862;BME280;34681;49.188;-0.374;2024-01-06T08:58:58;101240.69;;;9.87;71.99
48862;BME280;34681;49.188;-0.374;2024-01-06T09:01:24;101250.25;;;10.13;72.00
48862;BME280;34681;49.188;-0.374;2024-01-06T09:03:49;101247.16;;;10.90;70.53
48862;BME280;34681;49.188;-0.374;2024-01-06T09:06:15;101254.31;;;11.43;69.95
48862;BME280;34681;49.188;-0.374;2024-01-06T09:08:40;101265.03;;;11.65;69.60
48862;BME280;34681;49.188;-0.374;2024-01-06T09:11:06;101262.28;;;11.75;69.35
48862;BME280;34681;49.188;-0.374;2024-01-06T09:13:31;101271.81;;;11.71;69.67
48862;BME280;34681;49.188;-0.374;2024-01-06T09:15:58;101274.25;;;11.64;69.73
48862;BME280;34681;49.188;-0.374;2024-01-06T09:18:23;101280.75;;;11.63;69.90
48862;BME280;34681;49.188;-0.374;2024-01-06T09:20:49;101288.41;;;11.69;69.52
48862;BME280;34681;49.188;-0.374;2024-01-06T09:23:15;101292.16;;;11.68;69.96
48862;BME280;34681;49.188;-0.374;2024-01-06T09:25:41;101295.88;;;11.58;69.86
48862;BME280;34681;49.188;-0.374;2024-01-06T09:28:06;101291.72;;;11.23;70.46
48862;BME280;34681;49.188;-0.374;2024-01-06T09:30:32;101291.81;;;11.12;70.75
48862;BME280;34681;49.188;-0.374;2024-01-06T09:32:57;101307.00;;;10.95;70.85
48862;BME280;34681;49.188;-0.374;2024-01-06T09:35:23;101316.56;;;10.80;70.88
48862;BME280;34681;49.188;-0.374;2024-01-06T09:37:48;101322.09;;;10.27;71.77
48862;BME280;34681;49.188;-0.374;2024-01-06T09:40:21;101328.97;;;10.10;71.97
48862;BME280;34681;49.188;-0.374;2024-01-06T09:42:46;101328.69;;;9.58;73.38
48862;BME280;34681;49.188;-0.374;2024-01-06T09:45:12;101311.88;;;9.74;73.33
48862;BME280;34681;49.188;-0.374;2024-01-06T09:47:40;101336.91;;;9.03;73.78
48862;BME280;34681;49.188;-0.374;2024-01-06T09:50:06;101340.75;;;9.11;74.46
48862;BME280;34681;49.188;-0.374;2024-01-06T09:52:39;101331.06;;;9.63;73.72
48862;BME280;34681;49.188;-0.374;2024-01-06T09:55:10;101337.97;;;9.78;72.44
48862;BME280;34681;49.188;-0.374;2024-01-06T09:57:36;101340.78;;;9.99;71.97
48862;BME280;34681;49.188;-0.374;2024-01-06T10:00:02;101348.41;;;9.73;71.75
48862;BME280;34681;49.188;-0.374;2024-01-06T10:02:27;101349.69;;;10.24;71.31
48862;BME280;34681;49.188;-0.374;2024-01-06T10:04:53;101355.22;;;10.45;70.93
48862;BME280;34681;49.188;-0.374;2024-01-06T10:07:18;101364.50;;;10.74;70.41
48862;BME280;34681;49.188;-0.374;2024-01-06T10:09:43;101372.63;;;11.06;69.81
48862;BME280;34681;49.188;-0.374;2024-01-06T10:12:09;101367.84;;;11.19;69.94
48862;BME280;34681;49.188;-0.374;2024-01-06T10:14:37;101374.75;;;11.23;69.73
48862;BME280;34681;49.188;-0.374;2024-01-06T10:17:06;101388.81;;;11.09;70.01
48862;BME280;34681;49.188;-0.374;2024-01-06T10:19:31;101387.75;;;10.48;70.22
48862;BME280;34681;49.188;-0.374;2024-01-06T10:21:57;101386.38;;;10.10;70.05
48862;BME280;34681;49.188;-0.374;2024-01-06T10:24:27;101390.28;;;9.29;71.35
48862;BME280;34681;49.188;-0.374;2024-01-06T10:26:52;101376.66;;;8.71;71.92
48862;BME280;34681;49.188;-0.374;2024-01-06T10:29:17;101371.69;;;8.41;72.29
48862;BME280;34681;49.188;-0.374;2024-01-06T10:31:43;101369.38;;;8.48;73.07
48862;BME280;34681;49.188;-0.374;2024-01-06T10:34:08;101364.00;;;8.70;72.46
48862;BME280;34681;49.188;-0.374;2024-01-06T10:36:35;101365.28;;;8.89;72.64
48862;BME280;34681;49.188;-0.374;2024-01-06T10:39:03;101366.03;;;8.91;71.30
48862;BME280;34681;49.188;-0.374;2024-01-06T10:41:28;101368.28;;;9.75;71.44
48862;BME280;34681;49.188;-0.374;2024-01-06T10:43:57;101381.41;;;10.26;69.88
48862;BME280;34681;49.188;-0.374;2024-01-06T10:46:24;101399.81;;;9.91;70.14
48862;BME280;34681;49.188;-0.374;2024-01-06T10:48:51;101404.19;;;9.37;71.48
48862;BME280;34681;49.188;-0.374;2024-01-06T10:51:17;101423.91;;;8.48;74.89
48862;BME280;34681;49.188;-0.374;2024-01-06T10:53:44;101419.44;;;7.86;77.68
48862;BME280;34681;49.188;-0.374;2024-01-06T10:56:09;101406.84;;;7.60;79.37
48862;BME280;34681;49.188;-0.374;2024-01-06T10:58:45;101394.91;;;7.37;81.10
48862;BME280;34681;49.188;-0.374;2024-01-06T11:01:12;101402.44;;;7.21;82.81
48862;BME280;34681;49.188;-0.374;2024-01-06T11:03:39;101406.78;;;7.23;81.75
48862;BME280;34681;49.188;-0.374;2024-01-06T11:06:08;101405.91;;;7.23;83.80
48862;BME280;34681;49.188;-0.374;2024-01-06T11:08:51;101395.13;;;7.47;83.92
48862;BME280;34681;49.188;-0.374;2024-01-06T11:11:18;101407.94;;;7.57;83.12
48862;BME280;34681;49.188;-0.374;2024-01-06T11:13:44;101414.81;;;7.63;82.96
48862;BME280;34681;49.188;-0.374;2024-01-06T11:16:11;101414.13;;;8.09;82.42
48862;BME280;34681;49.188;-0.374;2024-01-06T11:18:37;101420.44;;;8.09;82.16
48862;BME280;34681;49.188;-0.374;2024-01-06T11:21:20;101422.38;;;8.20;81.66
48862;BME280;34681;49.188;-0.374;2024-01-06T11:24:18;101416.25;;;8.29;80.99
48862;BME280;34681;49.188;-0.374;2024-01-06T11:26:49;101420.34;;;8.83;80.84
48862;BME280;34681;49.188;-0.374;2024-01-06T11:29:15;101411.81;;;8.98;78.60
48862;BME280;34681;49.188;-0.374;2024-01-06T11:31:40;101409.50;;;9.16;79.22
48862;BME280;34681;49.188;-0.374;2024-01-06T11:34:14;101409.28;;;9.42;78.94
48862;BME280;34681;49.188;-0.374;2024-01-06T11:36:40;101402.56;;;9.79;78.33
48862;BME280;34681;49.188;-0.374;2024-01-06T11:39:05;101396.97;;;10.03;77.62
48862;BME280;34681;49.188;-0.374;2024-01-06T11:41:51;101399.78;;;10.24;75.98
48862;BME280;34681;49.188;-0.374;2024-01-06T11:44:22;101402.75;;;10.32;76.38
48862;BME280;34681;49.188;-0.374;2024-01-06T11:46:48;101397.91;;;10.57;76.41
48862;BME280;34681;49.188;-0.374;2024-01-06T11:49:19;101393.81;;;10.83;75.63
48862;BME280;34681;49.188;-0.374;2024-01-06T11:51:45;101396.97;;;11.20;74.66
48862;BME280;34681;49.188;-0.374;2024-01-06T11:54:11;101393.69;;;11.57;74.16
48862;BME280;34681;49.188;-0.374;2024-01-06T11:56:37;101398.31;;;11.66;73.47
48862;BME280;34681;49.188;-0.374;2024-01-06T11:59:03;101410.78;;;10.98;72.90
48862;BME280;34681;49.188;-0.374;2024-01-06T12:01:36;101418.56;;;10.29;75.38
48862;BME280;34681;49.188;-0.374;2024-01-06T12:04:02;101411.94;;;10.20;75.87
48862;BME280;34681;49.188;-0.374;2024-01-06T12:06:28;101417.50;;;10.52;76.19
48862;BME280;34681;49.188;-0.374;2024-01-06T12:09:03;101411.59;;;10.57;75.84
48862;BME280;34681;49.188;-0.374;2024-01-06T12:11:30;101412.03;;;10.41;76.20
48862;BME280;34681;49.188;-0.374;2024-01-06T12:13:55;101413.72;;;10.10;76.73
48862;BME280;34681;49.188;-0.374;2024-01-06T12:16:20;101413.03;;;9.63;76.46
48862;BME280;34681;49.188;-0.374;2024-01-06T12:18:46;101400.97;;;9.66;77.61
48862;BME280;34681;49.188;-0.374;2024-01-06T12:21:11;101401.84;;;9.77;76.99
48862;BME280;34681;49.188;-0.374;2024-01-06T12:23:37;101396.94;;;9.92;76.88
48862;BME280;34681;49.188;-0.374;2024-01-06T12:26:02;101404.25;;;10.25;76.42
48862;BME280;34681;49.188;-0.374;2024-01-06T12:28:28;101397.53;;;10.61;75.50
48862;BME280;34681;49.188;-0.374;2024-01-06T12:30:54;101388.94;;;10.34;74.64
48862;BME280;34681;49.188;-0.374;2024-01-06T12:33:19;101393.19;;;10.59;74.20
48862;BME280;34681;49.188;-0.374;2024-01-06T12:35:45;101386.66;;;10.71;74.62
48862;BME280;34681;49.188;-0.374;2024-01-06T12:38:10;101387.34;;;11.05;74.07
48862;BME280;34681;49.188;-0.374;2024-01-06T12:40:37;101384.72;;;11.24;74.23